createdAt,value
2023-01-11T00:07:50.095Z,64.86
2023-01-11T00:17:50.290Z,63.90
2023-01-11T00:27:50.574Z,62.24
2023-01-11T00:37:50.576Z,63.15
2023-01-11T00:47:50.826Z,60.87
2023-01-11T00:57:51.180Z,60.35
2023-01-11T01:07:51.203Z,60.84
2023-01-11T01:17:51.409Z,63.35
2023-01-11T01:27:51.673Z,64.62
2023-01-11T01:37:51.881Z,64.18
2023-01-11T01:47:53.191Z,62.29
2023-01-11T01:57:52.190Z,62.91
2023-01-11T02:07:52.431Z,63.95
2023-01-11T02:17:52.621Z,62.39
2023-01-11T02:27:52.890Z,62.52
2023-01-11T02:37:53.100Z,61.69
2023-01-11T02:47:53.355Z,61.07
2023-01-11T02:57:53.554Z,61.18
2023-01-11T03:07:53.832Z,61.38
2023-01-11T03:17:54.029Z,62.01
2023-01-11T03:27:54.309Z,61.80
2023-01-11T03:37:54.314Z,62.14
2023-01-11T03:47:57.637Z,61.93
2023-01-11T03:57:54.661Z,61.07
2023-01-11T04:07:54.956Z,60.69
2023-01-11T04:17:54.947Z,60.04
2023-01-11T04:27:55.205Z,61.10
2023-01-11T04:37:55.419Z,61.55
2023-01-11T04:47:55.691Z,61.31
2023-01-11T04:57:55.692Z,61.31
2023-01-11T05:07:55.978Z,60.87
2023-01-11T05:17:56.018Z,60.48
2023-01-11T05:27:56.351Z,61.31
2023-01-11T05:37:56.383Z,62.58
2023-01-11T05:47:56.722Z,64.69
2023-01-11T05:57:56.743Z,65.10
2023-01-11T06:07:57.094Z,64.17
2023-01-11T06:17:57.160Z,65.75
2023-01-11T06:27:57.463Z,65.78
2023-01-11T06:37:57.494Z,67.13
2023-01-11T06:47:57.836Z,67.41
2023-01-11T06:57:57.875Z,65.52
2023-01-11T07:07:58.208Z,67.86
2023-01-11T07:17:58.271Z,67.27
2023-01-11T07:27:58.568Z,66.96
2023-01-11T07:37:58.589Z,68.31
2023-01-11T07:47:58.840Z,68.62
2023-01-11T07:57:59.073Z,68.73
2023-01-11T08:07:59.409Z,68.38
2023-01-11T08:17:59.433Z,68.77
2023-01-11T08:27:59.682Z,69.08
2023-01-11T08:37:59.909Z,72.15
2023-01-11T08:48:00.180Z,69.50
2023-01-11T08:58:00.216Z,70.32
2023-01-11T09:08:00.534Z,66.47
2023-01-11T09:18:00.558Z,64.48
2023-01-11T09:28:00.902Z,65.48
2023-01-11T09:38:00.943Z,64.76
2023-01-11T09:48:01.285Z,63.90
2023-01-11T09:58:01.341Z,63.49
2023-01-11T10:18:28.983Z,62.81
2023-01-11T10:28:02.876Z,62.71
2023-01-11T10:38:02.205Z,62.68
2023-01-11T10:48:02.225Z,62.34
2023-01-11T10:58:03.901Z,62.34
2023-01-11T11:08:02.581Z,63.37
2023-01-11T11:18:03.864Z,63.27
2023-01-11T11:28:02.887Z,63.68
2023-01-11T11:38:03.213Z,64.29
2023-01-11T11:48:03.229Z,65.33
2023-01-11T11:58:03.571Z,63.99
2023-01-11T12:08:03.609Z,64.92
2023-01-11T12:18:03.838Z,65.22
2023-01-11T12:28:04.082Z,65.74
2023-01-11T12:38:04.426Z,65.02
2023-01-11T12:48:04.463Z,65.50
2023-01-11T12:58:06.278Z,62.41
2023-01-11T13:08:04.937Z,63.82
2023-01-11T13:18:05.257Z,64.24
2023-01-11T13:28:08.748Z,65.99
2023-01-11T13:38:06.551Z,71.44
2023-01-11T13:48:05.807Z,75.12
2023-01-11T13:58:05.865Z,76.66
2023-01-11T14:08:06.177Z,82.34
2023-01-11T14:18:06.205Z,86.05
2023-01-11T14:28:06.543Z,89.05
2023-01-11T14:38:06.585Z,88.68
2023-01-11T14:48:06.923Z,83.06
2023-01-11T14:58:06.947Z,88.31
2023-01-11T15:08:07.194Z,89.95
2023-01-11T15:18:07.453Z,85.72
2023-01-11T15:28:07.763Z,78.21
2023-01-11T15:38:07.836Z,87.68
2023-01-11T15:48:08.148Z,85.31
2023-01-11T15:58:08.179Z,79.38
2023-01-11T16:08:08.508Z,76.04
2023-01-11T16:18:08.557Z,79.25
2023-01-11T16:28:08.893Z,82.52
2023-01-11T16:38:08.975Z,79.18
2023-01-11T16:48:09.044Z,78.83
2023-01-11T16:58:09.247Z,79.49
2023-01-11T17:08:09.369Z,80.42
2023-01-11T17:18:09.405Z,79.69
2023-01-11T17:28:10.704Z,81.56
2023-01-11T17:38:09.757Z,80.52
2023-01-11T17:48:10.001Z,81.86
2023-01-11T17:58:10.264Z,84.17
2023-01-11T18:08:10.543Z,81.62
2023-01-11T18:18:10.652Z,83.62
2023-01-11T18:28:10.805Z,88.41
2023-01-11T18:38:10.887Z,91.96
2023-01-11T18:48:10.969Z,94.81
2023-01-11T18:58:11.208Z,94.77
2023-01-11T19:08:11.555Z,95.39
2023-01-11T19:18:11.615Z,95.92
2023-01-11T19:28:12.227Z,93.56
2023-01-11T19:38:11.971Z,93.20
2023-01-11T19:48:13.415Z,96.03
2023-01-11T19:58:12.512Z,96.36
2023-01-11T20:08:12.649Z,87.65
2023-01-11T20:18:12.897Z,83.49
2023-01-11T20:28:13.146Z,89.65
2023-01-11T20:38:13.087Z,90.61
2023-01-11T20:48:13.509Z,87.79
2023-01-11T20:58:13.644Z,93.05
2023-01-11T21:08:13.855Z,95.52
2023-01-11T21:18:13.894Z,96.30
2023-01-11T21:28:14.341Z,95.53
2023-01-11T21:38:14.395Z,96.20
2023-01-11T21:48:14.707Z,95.32
2023-01-11T21:58:14.730Z,88.59
2023-01-11T22:08:16.167Z,86.66
2023-01-11T22:18:15.334Z,84.08
2023-01-11T22:28:15.553Z,84.43
2023-01-11T22:38:15.587Z,87.60
2023-01-11T22:48:15.948Z,90.78
2023-01-11T22:58:15.959Z,89.61
2023-01-11T23:08:16.300Z,90.89
2023-01-11T23:18:16.338Z,91.44
2023-01-11T23:28:16.873Z,89.44
2023-01-11T23:38:16.711Z,88.61
2023-01-11T23:48:17.546Z,86.76
2023-01-11T23:58:17.169Z,85.17
